sensor_id;sensor_type;location;lat;lon;timestamp;temperature;humidity
30764;DHT22;17497;51.476;7.770;2023-06-22T00:00:00;21.10;99.90
30764;DHT22;17497;51.476;7.770;2023-06-22T00:02:27;21.10;99.90
30764;DHT22;17497;51.476;7.770;2023-06-22T00:04:54;21.10;99.90
30764;DHT22;17497;51.476;7.770;2023-06-22T00:07:21;21.00;99.90
30764;DHT22;17497;51.476;7.770;2023-06-22T00:09:48;21.00;99.90
30764;DHT22;17497;51.476;7.770;2023-06-22T00:12:15;21.10;99.90
30764;DHT22;17497;51.476;7.770;2023-06-22T00:14:42;21.10;99.90
30764;DHT22;17497;51.476;7.770;2023-06-22T00:17:08;21.00;99.90
30764;DHT22;17497;51.476;7.770;2023-06-22T00:19:35;21.10;99.90
30764;DHT22;17497;51.476;7.770;2023-06-22T00:22:02;21.00;99.90
30764;DHT22;17497;51.476;7.770;2023-06-22T00:24:29;21.00;99.90
30764;DHT22;17497;51.476;7.770;2023-06-22T00:26:56;21.00;99.90
30764;DHT22;17497;51.476;7.770;2023-06-22T00:29:23;20.90;99.90
30764;DHT22;17497;51.476;7.770;2023-06-22T00:31:51;20.90;99.90
30764;DHT22;17497;51.476;7.770;2023-06-22T00:34:18;20.80;99.90
30764;DHT22;17497;51.476;7.770;2023-06-22T00:36:45;20.90;99.90
30764;DHT22;17497;51.476;7.770;2023-06-22T00:39:13;20.90;99.90
30764;DHT22;17497;51.476;7.770;2023-06-22T00:41:40;20.80;99.90
30764;DHT22;17497;51.476;7.770;2023-06-22T00:44:06;20.80;99.90
30764;DHT22;17497;51.476;7.770;2023-06-22T00:46:35;20.70;99.90
30764;DHT22;17497;51.476;7.770;2023-06-22T00:49:02;20.60;99.90
30764;DHT22;17497;51.476;7.770;2023-06-22T00:51:32;20.50;99.90
30764;DHT22;17497;51.476;7.770;2023-06-22T00:53:59;20.50;99.90
30764;DHT22;17497;51.476;7.770;2023-06-22T00:56:26;20.50;99.90
30764;DHT22;17497;51.476;7.770;2023-06-22T00:58:58;20.40;99.90
30764;DHT22;17497;51.476;7.770;2023-06-22T01:01:25;20.40;99.90
30764;DHT22;17497;51.476;7.770;2023-06-22T01:03:52;20.30;99.90
30764;DHT22;17497;51.476;7.770;2023-06-22T01:06:26;20.30;99.90
30764;DHT22;17497;51.476;7.770;2023-06-22T01:09:02;20.30;99.90
30764;DHT22;17497;51.476;7.770;2023-06-22T01:11:39;20.30;99.90
30764;DHT22;17497;51.476;7.770;2023-06-22T01:14:47;20.30;99.90
30764;DHT22;17497;51.476;7.770;2023-06-22T01:17:19;20.20;99.90
30764;DHT22;17497;51.476;7.770;2023-06-22T01:19:49;20.20;99.90
30764;DHT22;17497;51.476;7.770;2023-06-22T01:22:24;20.20;99.90
30764;DHT22;17497;51.476;7.770;2023-06-22T01:25:09;20.20;99.90
30764;DHT22;17497;51.476;7.770;2023-06-22T01:27:56;20.20;99.90
30764;DHT22;17497;51.476;7.770;2023-06-22T01:30:28;20.20;99.90
30764;DHT22;17497;51.476;7.770;2023-06-22T01:32:57;20.20;99.90
30764;DHT22;17497;51.476;7.770;2023-06-22T01:35:24;20.20;99.90
30764;DHT22;17497;51.476;7.770;2023-06-22T01:37:52;20.10;99.90
30764;DHT22;17497;51.476;7.770;2023-06-22T01:40:20;20.10;99.90
30764;DHT22;17497;51.476;7.770;2023-06-22T01:42:48;20.00;99.90
30764;DHT22;17497;51.476;7.770;2023-06-22T01:45:17;20.00;99.90
30764;DHT22;17497;51.476;7.770;2023-06-22T01:47:45;20.00;99.90
30764;DHT22;17497;51.476;7.770;2023-06-22T01:50:12;20.10;99.90
30764;DHT22;17497;51.476;7.770;2023-06-22T01:52:39;20.10;99.90
30764;DHT22;17497;51.476;7.770;2023-06-22T01:55:06;20.10;99.90
30764;DHT22;17497;51.476;7.770;2023-06-22T01:57:35;20.20;99.90
30764;DHT22;17497;51.476;7.770;2023-06-22T02:00:03;20.20;99.90
30764;DHT22;17497;51.476;7.770;2023-06-22T02:02:39;20.20;99.90
30764;DHT22;17497;51.476;7.770;2023-06-22T02:05:08;20.20;99.90
30764;DHT22;17497;51.476;7.770;2023-06-22T02:07:43;20.30;99.90
30764;DHT22;17497;51.476;7.770;2023-06-22T02:10:14;20.30;99.90
30764;DHT22;17497;51.476;7.770;2023-06-22T02:12:43;20.30;99.90
30764;DHT22;17497;51.476;7.770;2023-06-22T02:15:11;20.30;99.90
30764;DHT22;17497;51.476;7.770;2023-06-22T02:17:39;20.20;99.90
30764;DHT22;17497;51.476;7.770;2023-06-22T02:20:13;20.20;99.90
30764;DHT22;17497;51.476;7.770;2023-06-22T02:22:40;20.20;99.90
30764;DHT22;17497;51.476;7.770;2023-06-22T02:25:08;20.10;99.90
30764;DHT22;17497;51.476;7.770;2023-06-22T02:27:35;20.10;99.90
30764;DHT22;17497;51.476;7.770;2023-06-22T02:30:02;20.10;99.90
30764;DHT22;17497;51.476;7.770;2023-06-22T02:32:28;20.00;99.90
30764;DHT22;17497;51.476;7.770;2023-06-22T02:34:55;20.00;99.90
30764;DHT22;17497;51.476;7.770;2023-06-22T02:37:22;20.10;99.90
30764;DHT22;17497;51.476;7.770;2023-06-22T02:39:52;20.10;99.90
30764;DHT22;17497;51.476;7.770;2023-06-22T02:42:19;20.10;99.90
30764;DHT22;17497;51.476;7.770;2023-06-22T02:44:48;20.00;99.90
30764;DHT22;17497;51.476;7.770;2023-06-22T02:47:15;20.00;99.90
30764;DHT22;17497;51.476;7.770;2023-06-22T02:49:42;20.00;99.90
30764;DHT22;17497;51.476;7.770;2023-06-22T02:52:11;20.00;99.90
30764;DHT22;17497;51.476;7.770;2023-06-22T02:54:38;20.00;99.90
30764;DHT22;17497;51.476;7.770;2023-06-22T02:57:05;20.00;99.90
30764;DHT22;17497;51.476;7.770;2023-06-22T02:59:31;20.00;99.90
30764;DHT22;17497;51.476;7.770;2023-06-22T03:02:00;20.00;99.90
30764;DHT22;17497;51.476;7.770;2023-06-22T03:04:27;20.10;99.90
30764;DHT22;17497;51.476;7.770;2023-06-22T03:06:56;20.20;99.90
30764;DHT22;17497;51.476;7.770;2023-06-22T03:09:23;20.20;99.90
30764;DHT22;17497;51.476;7.770;2023-06-22T03:11:49;20.20;99.90
30764;DHT22;17497;51.476;7.770;2023-06-22T03:14:16;20.20;99.90
30764;DHT22;17497;51.476;7.770;2023-06-22T03:16:43;20.20;99.90
30764;DHT22;17497;51.476;7.770;2023-06-22T03:19:10;20.10;99.90
30764;DHT22;17497;51.476;7.770;2023-06-22T03:21:38;20.10;99.90
30764;DHT22;17497;51.476;7.770;2023-06-22T03:24:06;20.10;99.90
30764;DHT22;17497;51.476;7.770;2023-06-22T03:26:33;20.00;99.90
30764;DHT22;17497;51.476;7.770;2023-06-22T03:29:01;20.00;99.90
30764;DHT22;17497;51.476;7.770;2023-06-22T03:31:27;20.00;99.90
30764;DHT22;17497;51.476;7.770;2023-06-22T03:33:54;19.90;99.90
30764;DHT22;17497;51.476;7.770;2023-06-22T03:36:22;19.90;99.90
30764;DHT22;17497;51.476;7.770;2023-06-22T03:38:50;19.90;99.90
30764;DHT22;17497;51.476;7.770;2023-06-22T03:41:17;19.90;99.90
30764;DHT22;17497;51.476;7.770;2023-06-22T03:43:43;19.80;99.90
30764;DHT22;17497;51.476;7.770;2023-06-22T03:46:10;19.80;99.90
30764;DHT22;17497;51.476;7.770;2023-06-22T03:48:38;19.80;99.90
30764;DHT22;17497;51.476;7.770;2023-06-22T03:51:05;19.70;99.90
30764;DHT22;17497;51.476;7.770;2023-06-22T03:53:32;19.70;99.90
30764;DHT22;17497;51.476;7.770;2023-06-22T03:55:58;19.70;99.90
30764;DHT22;17497;51.476;7.770;2023-06-22T03:58:25;19.80;99.90
30764;DHT22;17497;51.476;7.770;2023-06-22T04:00:53;19.90;99.90
30764;DHT22;17497;51.476;7.770;2023-06-22T04:03:20;19.90;99.90
30764;DHT22;17497;51.476;7.770;2023-06-22T04:05:47;19.90;99.90
30764;DHT22;17497;51.476;7.770;2023-06-22T04:08:15;20.00;99.90
30764;DHT22;17497;51.476;7.770;2023-06-22T04:10:42;20.00;99.90
30764;DHT22;17497;51.476;7.770;2023-06-22T04:13:09;20.00;99.90
30764;DHT22;17497;51.476;7.770;2023-06-22T04:15:36;20.00;99.90
30764;DHT22;17497;51.476;7.770;2023-06-22T04:18:03;20.10;99.90
30764;DHT22;17497;51.476;7.770;2023-06-22T04:20:31;20.20;99.90
30764;DHT22;17497;51.476;7.770;2023-06-22T04:22:58;20.30;99.90
30764;DHT22;17497;51.476;7.770;2023-06-22T04:25:25;20.30;99.90
30764;DHT22;17497;51.476;7.770;2023-06-22T04:27:52;20.30;99.90
30764;DHT22;17497;51.476;7.770;2023-06-22T04:30:19;20.40;99.90
30764;DHT22;17497;51.476;7.770;2023-06-22T04:32:46;20.40;99.90
30764;DHT22;17497;51.476;7.770;2023-06-22T04:35:23;20.50;99.90
30764;DHT22;17497;51.476;7.770;2023-06-22T04:37:50;20.50;99.90
30764;DHT22;17497;51.476;7.770;2023-06-22T04:40:22;20.50;99.90
30764;DHT22;17497;51.476;7.770;2023-06-22T04:42:49;20.50;99.90
30764;DHT22;17497;51.476;7.770;2023-06-22T05:09:23;20.40;99.90
30764;DHT22;17497;51.476;7.770;2023-06-22T05:11:51;20.20;99.90
30764;DHT22;17497;51.476;7.770;2023-06-22T05:14:19;19.90;99.90
30764;DHT22;17497;51.476;7.770;2023-06-22T05:16:46;19.60;99.90
30764;DHT22;17497;51.476;7.770;2023-06-22T05:19:12;19.50;99.90
30764;DHT22;17497;51.476;7.770;2023-06-22T05:21:39;19.50;99.90
30764;DHT22;17497;51.476;7.770;2023-06-22T05:24:06;19.40;99.90
30764;DHT22;17497;51.476;7.770;2023-06-22T05:26:34;19.30;99.90
30764;DHT22;17497;51.476;7.770;2023-06-22T05:29:02;19.30;99.90
30764;DHT22;17497;51.476;7.770;2023-06-22T05:31:29;19.20;99.90
30764;DHT22;17497;51.476;7.770;2023-06-22T05:33:56;19.10;99.90
30764;DHT22;17497;51.476;7.770;2023-06-22T05:36:23;19.10;99.90
30764;DHT22;17497;51.476;7.770;2023-06-22T05:38:52;19.00;99.90
30764;DHT22;17497;51.476;7.770;2023-06-22T05:41:19;19.10;99.90
30764;DHT22;17497;51.476;7.770;2023-06-22T05:43:46;19.00;99.90
30764;DHT22;17497;51.476;7.770;2023-06-22T05:46:13;19.10;99.90
30764;DHT22;17497;51.476;7.770;2023-06-22T05:48:39;19.10;99.90
30764;DHT22;17497;51.476;7.770;2023-06-22T05:51:06;19.20;99.90
30764;DHT22;17497;51.476;7.770;2023-06-22T05:53:33;19.20;99.90
30764;DHT22;17497;51.476;7.770;2023-06-22T05:56:00;19.20;99.90
30764;DHT22;17497;51.476;7.770;2023-06-22T05:58:27;19.20;99.90
30764;DHT22;17497;51.476;7.770;2023-06-22T06:00:54;19.20;99.90
30764;DHT22;17497;51.476;7.770;2023-06-22T06:03:21;19.30;99.90
30764;DHT22;17497;51.476;7.770;2023-06-22T06:05:47;19.30;99.90
30764;DHT22;17497;51.476;7.770;2023-06-22T06:08:14;19.40;99.90
30764;DHT22;17497;51.476;7.770;2023-06-22T06:10:41;19.50;99.90
30764;DHT22;17497;51.476;7.770;2023-06-22T06:13:08;19.60;99.90
30764;DHT22;17497;51.476;7.770;2023-06-22T06:15:35;19.60;99.90
30764;DHT22;17497;51.476;7.770;2023-06-22T06:18:02;19.70;99.90
30764;DHT22;17497;51.476;7.770;2023-06-22T06:20:32;19.70;99.90
30764;DHT22;17497;51.476;7.770;2023-06-22T06:23:00;19.80;99.90
30764;DHT22;17497;51.476;7.770;2023-06-22T06:25:26;19.80;99.90
30764;DHT22;17497;51.476;7.770;2023-06-22T06:27:53;19.80;99.90
30764;DHT22;17497;51.476;7.770;2023-06-22T06:30:21;19.80;99.90
30764;DHT22;17497;51.476;7.770;2023-06-22T06:32:49;19.80;99.90
30764;DHT22;17497;51.476;7.770;2023-06-22T06:35:18;19.90;99.90
30764;DHT22;17497;51.476;7.770;2023-06-22T06:37:47;19.90;99.90
30764;DHT22;17497;51.476;7.770;2023-06-22T06:40:16;20.00;99.90
30764;DHT22;17497;51.476;7.770;2023-06-22T06:42:47;20.10;99.90
30764;DHT22;17497;51.476;7.770;2023-06-22T06:45:22;20.20;99.90
30764;DHT22;17497;51.476;7.770;2023-06-22T06:47:53;20.30;99.90
30764;DHT22;17497;51.476;7.770;2023-06-22T06:50:21;20.40;99.90
30764;DHT22;17497;51.476;7.770;2023-06-22T06:52:48;20.40;99.90
30764;DHT22;17497;51.476;7.770;2023-06-22T06:55:16;20.50;99.90
30764;DHT22;17497;51.476;7.770;2023-06-22T06:57:43;20.60;99.90
30764;DHT22;17497;51.476;7.770;2023-06-22T07:00:12;20.70;99.90
30764;DHT22;17497;51.476;7.770;2023-06-22T07:02:44;20.80;99.90
30764;DHT22;17497;51.476;7.770;2023-06-22T07:05:12;20.80;99.90
30764;DHT22;17497;51.476;7.770;2023-06-22T07:07:39;20.80;99.90
30764;DHT22;17497;51.476;7.770;2023-06-22T07:10:08;20.90;99.90
30764;DHT22;17497;51.476;7.770;2023-06-22T07:12:35;21.00;99.90
30764;DHT22;17497;51.476;7.770;2023-06-22T07:15:04;21.10;99.90
30764;DHT22;17497;51.476;7.770;2023-06-22T07:17:31;21.30;99.90
30764;DHT22;17497;51.476;7.770;2023-06-22T07:19:58;21.40;99.90
30764;DHT22;17497;51.476;7.770;2023-06-22T07:22:25;21.60;99.90
30764;DHT22;17497;51.476;7.770;2023-06-22T07:24:52;21.70;99.90
30764;DHT22;17497;51.476;7.770;2023-06-22T07:27:19;21.80;99.90
30764;DHT22;17497;51.476;7.770;2023-06-22T07:29:46;21.90;99.90
30764;DHT22;17497;51.476;7.770;2023-06-22T07:32:13;21.90;99.90
30764;DHT22;17497;51.476;7.770;2023-06-22T07:34:40;21.90;99.90
30764;DHT22;17497;51.476;7.770;2023-06-22T07:37:07;22.00;99.90
30764;DHT22;17497;51.476;7.770;2023-06-22T07:39:34;22.00;99.90
30764;DHT22;17497;51.476;7.770;2023-06-22T07:42:01;22.10;99.90
30764;DHT22;17497;51.476;7.770;2023-06-22T07:44:31;22.20;99.90
30764;DHT22;17497;51.476;7.770;2023-06-22T07:46:58;22.30;99.90
30764;DHT22;17497;51.476;7.770;2023-06-22T07:49:24;22.50;99.90
30764;DHT22;17497;51.476;7.770;2023-06-22T07:51:51;22.60;99.90
30764;DHT22;17497;51.476;7.770;2023-06-22T07:54:18;22.80;99.90
30764;DHT22;17497;51.476;7.770;2023-06-22T07:56:46;22.90;99.90
30764;DHT22;17497;51.476;7.770;2023-06-22T07:59:13;23.10;99.90
30764;DHT22;17497;51.476;7.770;2023-06-22T08:01:39;23.10;99.90
30764;DHT22;17497;51.476;7.770;2023-06-22T08:04:06;23.10;99.90
30764;DHT22;17497;51.476;7.770;2023-06-22T08:06:33;23.10;99.90
30764;DHT22;17497;51.476;7.770;2023-06-22T08:09:00;23.20;99.90
30764;DHT22;17497;51.476;7.770;2023-06-22T08:11:27;23.20;99.90
30764;DHT22;17497;51.476;7.770;2023-06-22T08:13:54;23.20;99.90
30764;DHT22;17497;51.476;7.770;2023-06-22T08:16:22;23.30;99.90
30764;DHT22;17497;51.476;7.770;2023-06-22T08:18:49;23.40;99.90
30764;DHT22;17497;51.476;7.770;2023-06-22T08:21:19;23.40;99.90
30764;DHT22;17497;51.476;7.770;2023-06-22T08:23:45;23.50;99.90
30764;DHT22;17497;51.476;7.770;2023-06-22T08:26:12;23.50;99.90
30764;DHT22;17497;51.476;7.770;2023-06-22T08:28:39;23.60;99.90
30764;DHT22;17497;51.476;7.770;2023-06-22T08:31:06;23.60;99.90
30764;DHT22;17497;51.476;7.770;2023-06-22T08:33:33;23.60;99.90
30764;DHT22;17497;51.476;7.770;2023-06-22T08:35:59;23.60;99.90
30764;DHT22;17497;51.476;7.770;2023-06-22T08:38:27;23.60;99.90
30764;DHT22;17497;51.476;7.770;2023-06-22T08:40:53;23.70;99.90
30764;DHT22;17497;51.476;7.770;2023-06-22T08:43:20;23.70;99.90
30764;DHT22;17497;51.476;7.770;2023-06-22T08:45:47;23.80;99.90
30764;DHT22;17497;51.476;7.770;2023-06-22T08:48:20;23.80;99.90
30764;DHT22;17497;51.476;7.770;2023-06-22T08:50:47;23.90;99.90
30764;DHT22;17497;51.476;7.770;2023-06-22T08:53:14;24.00;99.90
30764;DHT22;17497;51.476;7.770;2023-06-22T08:55:40;24.10;99.90
30764;DHT22;17497;51.476;7.770;2023-06-22T08:58:07;24.20;99.90
30764;DHT22;17497;51.476;7.770;2023-06-22T09:00:34;24.20;99.90
30764;DHT22;17497;51.476;7.770;2023-06-22T09:03:01;24.20;99.90
30764;DHT22;17497;51.476;7.770;2023-06-22T09:05:29;24.20;99.90
30764;DHT22;17497;51.476;7.770;2023-06-22T09:07:56;24.20;99.90
30764;DHT22;17497;51.476;7.770;2023-06-22T09:10:25;24.20;99.90
30764;DHT22;17497;51.476;7.770;2023-06-22T09:12:52;24.10;99.90
30764;DHT22;17497;51.476;7.770;2023-06-22T09:15:19;24.10;99.90
30764;DHT22;17497;51.476;7.770;2023-06-22T09:17:46;24.20;99.90
30764;DHT22;17497;51.476;7.770;2023-06-22T09:20:13;24.30;99.90
30764;DHT22;17497;51.476;7.770;2023-06-22T09:22:40;24.40;99.90
30764;DHT22;17497;51.476;7.770;2023-06-22T09:25:07;24.50;99.90
30764;DHT22;17497;51.476;7.770;2023-06-22T09:27:34;24.60;99.90
30764;DHT22;17497;51.476;7.770;2023-06-22T09:30:01;24.70;99.90
30764;DHT22;17497;51.476;7.770;2023-06-22T09:32:29;24.90;99.90
30764;DHT22;17497;51.476;7.770;2023-06-22T09:34:56;25.10;99.90
30764;DHT22;17497;51.476;7.770;2023-06-22T09:37:23;25.20;99.90
30764;DHT22;17497;51.476;7.770;2023-06-22T09:39:49;25.50;99.90
30764;DHT22;17497;51.476;7.770;2023-06-22T09:42:17;25.80;99.90
30764;DHT22;17497;51.476;7.770;2023-06-22T09:44:43;26.10;99.90
30764;DHT22;17497;51.476;7.770;2023-06-22T09:47:10;26.40;99.90
30764;DHT22;17497;51.476;7.770;2023-06-22T09:49:37;26.50;99.90
30764;DHT22;17497;51.476;7.770;2023-06-22T09:52:14;26.60;99.90
30764;DHT22;17497;51.476;7.770;2023-06-22T09:54:40;26.70;99.90
30764;DHT22;17497;51.476;7.770;2023-06-22T09:57:07;26.70;99.90
30764;DHT22;17497;51.476;7.770;2023-06-22T09:59:34;26.80;99.90
30764;DHT22;17497;51.476;7.770;2023-06-22T10:02:01;26.80;99.90
30764;DHT22;17497;51.476;7.770;2023-06-22T10:04:28;26.70;99.90
30764;DHT22;17497;51.476;7.770;2023-06-22T10:06:55;26.70;99.90
30764;DHT22;17497;51.476;7.770;2023-06-22T10:09:22;26.60;99.90
30764;DHT22;17497;51.476;7.770;2023-06-22T10:11:49;26.50;99.90
30764;DHT22;17497;51.476;7.770;2023-06-22T10:14:16;26.40;99.90
30764;DHT22;17497;51.476;7.770;2023-06-22T10:16:43;26.20;99.90
30764;DHT22;17497;51.476;7.770;2023-06-22T10:19:10;26.20;99.90
30764;DHT22;17497;51.476;7.770;2023-06-22T10:21:37;26.10;99.90
30764;DHT22;17497;51.476;7.770;2023-06-22T10:24:04;26.10;99.90
30764;DHT22;17497;51.476;7.770;2023-06-22T10:26:33;26.10;99.90
30764;DHT22;17497;51.476;7.770;2023-06-22T10:29:01;26.00;99.90
30764;DHT22;17497;51.476;7.770;2023-06-22T10:31:45;26.10;99.90
30764;DHT22;17497;51.476;7.770;2023-06-22T10:34:24;26.10;99.90
30764;DHT22;17497;51.476;7.770;2023-06-22T10:36:51;26.10;99.90
30764;DHT22;17497;51.476;7.770;2023-06-22T10:39:18;26.00;99.90
30764;DHT22;17497;51.476;7.770;2023-06-22T10:41:45;26.00;99.90
30764;DHT22;17497;51.476;7.770;2023-06-22T10:44:12;26.00;99.90
30764;DHT22;17497;51.476;7.770;2023-06-22T10:46:40;26.00;99.90
30764;DHT22;17497;51.476;7.770;2023-06-22T10:49:07;25.90;99.90
30764;DHT22;17497;51.476;7.770;2023-06-22T10:51:33;25.80;99.90
30764;DHT22;17497;51.476;7.770;2023-06-22T10:54:00;25.70;99.90
30764;DHT22;17497;51.476;7.770;2023-06-22T10:56:27;25.70;99.90
30764;DHT22;17497;51.476;7.770;2023-06-22T10:58:54;25.60;99.90
30764;DHT22;17497;51.476;7.770;2023-06-22T11:01:21;25.40;99.90
30764;DHT22;17497;51.476;7.770;2023-06-22T11:03:51;25.30;99.90
30764;DHT22;17497;51.476;7.770;2023-06-22T11:06:22;25.20;99.90
30764;DHT22;17497;51.476;7.770;2023-06-22T11:08:49;25.10;99.90
30764;DHT22;17497;51.476;7.770;2023-06-22T11:11:32;25.00;99.90
30764;DHT22;17497;51.476;7.770;2023-06-22T11:13:59;24.90;99.90
30764;DHT22;17497;51.476;7.770;2023-06-22T11:16:27;24.80;99.90
30764;DHT22;17497;51.476;7.770;2023-06-22T11:18:54;24.80;99.90
30764;DHT22;17497;51.476;7.770;2023-06-22T11:21:21;24.70;99.90
30764;DHT22;17497;51.476;7.770;2023-06-22T11:23:48;24.60;99.90
30764;DHT22;17497;51.476;7.770;2023-06-22T11:26:17;24.50;99.90
30764;DHT22;17497;51.476;7.770;2023-06-22T11:28:44;24.50;99.90
30764;DHT22;17497;51.476;7.770;2023-06-22T11:31:10;24.40;99.90
30764;DHT22;17497;51.476;7.770;2023-06-22T11:33:52;24.30;99.90
30764;DHT22;17497;51.476;7.770;2023-06-22T11:36:19;24.30;99.90
30764;DHT22;17497;51.476;7.770;2023-06-22T11:38:46;24.30;99.90
30764;DHT22;17497;51.476;7.770;2023-06-22T11:41:14;24.30;99.90
30764;DHT22;17497;51.476;7.770;2023-06-22T11:43:41;24.30;99.90
30764;DHT22;17497;51.476;7.770;2023-06-22T11:46:08;24.20;99.90
30764;DHT22;17497;51.476;7.770;2023-06-22T11:48:36;24.20;99.90
30764;DHT22;17497;51.476;7.770;2023-06-22T11:51:03;24.10;99.90
30764;DHT22;17497;51.476;7.770;2023-06-22T11:53:30;24.10;99.90
30764;DHT22;17497;51.476;7.770;2023-06-22T11:55:57;24.00;99.90
30764;DHT22;17497;51.476;7.770;2023-06-22T11:58:24;24.00;99.90
30764;DHT22;17497;51.476;7.770;2023-06-22T12:00:51;23.90;99.90
30764;DHT22;17497;51.476;7.770;2023-06-22T12:03:19;23.80;99.90
30764;DHT22;17497;51.476;7.770;2023-06-22T12:05:50;23.70;99.90
30764;DHT22;17497;51.476;7.770;2023-06-22T12:08:17;23.70;99.90
30764;DHT22;17497;51.476;7.770;2023-06-22T12:10:45;23.60;99.90
30764;DHT22;17497;51.476;7.770;2023-06-22T12:13:12;23.50;99.90
30764;DHT22;17497;51.476;7.770;2023-06-22T12:15:39;23.40;99.90
30764;DHT22;17497;51.476;7.770;2023-06-22T12:18:06;23.30;99.90
30764;DHT22;17497;51.476;7.770;2023-06-22T12:20:33;23.20;99.90
30764;DHT22;17497;51.476;7.770;2023-06-22T12:23:01;23.00;99.90
30764;DHT22;17497;51.476;7.770;2023-06-22T12:25:28;22.90;99.90
30764;DHT22;17497;51.476;7.770;2023-06-22T12:27:55;22.80;99.90
30764;DHT22;17497;51.476;7.770;2023-06-22T12:30:22;22.70;99.90
30764;DHT22;17497;51.476;7.770;2023-06-22T12:32:48;22.60;99.90
30764;DHT22;17497;51.476;7.770;2023-06-22T12:35:19;22.50;99.90
30764;DHT22;17497;51.476;7.770;2023-06-22T12:37:46;22.40;99.90
30764;DHT22;17497;51.476;7.770;2023-06-22T12:40:12;22.30;99.90
30764;DHT22;17497;51.476;7.770;2023-06-22T12:42:42;22.10;99.90
30764;DHT22;17497;51.476;7.770;2023-06-22T12:45:09;22.00;99.90
30764;DHT22;17497;51.476;7.770;2023-06-22T12:47:37;21.80;99.90
30764;DHT22;17497;51.476;7.770;2023-06-22T12:50:06;21.70;99.90
30764;DHT22;17497;51.476;7.770;2023-06-22T12:52:36;21.40;99.90
30764;DHT22;17497;51.476;7.770;2023-06-22T12:55:03;21.10;99.90
30764;DHT22;17497;51.476;7.770;2023-06-22T12:57:30;20.90;99.90
30764;DHT22;17497;51.476;7.770;2023-06-22T12:59:57;20.80;99.90
30764;DHT22;17497;51.476;7.770;2023-06-22T13:02:25;20.60;99.90
30764;DHT22;17497;51.476;7.770;2023-06-22T13:04:52;20.50;99.90
30764;DHT22;17497;51.476;7.770;2023-06-22T13:07:19;20.20;99.90
30764;DHT22;17497;51.476;7.770;2023-06-22T13:09:50;20.00;99.90
30764;DHT22;17497;51.476;7.770;2023-06-22T13:12:20;20.00;99.90
30764;DHT22;17497;51.476;7.770;2023-06-22T13:14:48;20.00;99.90
30764;DHT22;17497;51.476;7.770;2023-06-22T13:17:15;20.00;99.90
30764;DHT22;17497;51.476;7.770;2023-06-22T13:19:42;20.20;99.90
30764;DHT22;17497;51.476;7.770;2023-06-22T13:24:56;20.40;99.90
30764;DHT22;17497;51.476;7.770;2023-06-22T13:27:23;20.60;99.90
30764;DHT22;17497;51.476;7.770;2023-06-22T13:29:50;20.70;99.90
30764;DHT22;17497;51.476;7.770;2023-06-22T13:32:17;20.80;99.90
30764;DHT22;17497;51.476;7.770;2023-06-22T13:34:44;20.80;99.90
30764;DHT22;17497;51.476;7.770;2023-06-22T13:37:10;20.70;99.90
30764;DHT22;17497;51.476;7.770;2023-06-22T13:39:37;20.70;99.90
30764;DHT22;17497;51.476;7.770;2023-06-22T13:42:05;20.70;99.90
30764;DHT22;17497;51.476;7.770;2023-06-22T13:44:32;20.80;99.90
30764;DHT22;17497;51.476;7.770;2023-06-22T13:46:59;20.90;99.90
30764;DHT22;17497;51.476;7.770;2023-06-22T13:49:26;21.00;99.90
30764;DHT22;17497;51.476;7.770;2023-06-22T13:51:53;21.30;99.90
30764;DHT22;17497;51.476;7.770;2023-06-22T13:54:19;22.00;99.90
30764;DHT22;17497;51.476;7.770;2023-06-22T13:56:49;22.70;99.90
30764;DHT22;17497;51.476;7.770;2023-06-22T13:59:16;23.40;99.90
30764;DHT22;17497;51.476;7.770;2023-06-22T14:01:43;24.10;99.90
30764;DHT22;17497;51.476;7.770;2023-06-22T14:04:10;24.50;99.90
30764;DHT22;17497;51.476;7.770;2023-06-22T14:06:38;24.70;99.90
30764;DHT22;17497;51.476;7.770;2023-06-22T14:09:05;24.60;99.90
30764;DHT22;17497;51.476;7.770;2023-06-22T14:11:32;24.30;99.90
30764;DHT22;17497;51.476;7.770;2023-06-22T14:13:59;24.10;99.90
30764;DHT22;17497;51.476;7.770;2023-06-22T14:16:26;24.00;99.90
30764;DHT22;17497;51.476;7.770;2023-06-22T14:18:52;23.90;99.90
30764;DHT22;17497;51.476;7.770;2023-06-22T14:21:23;23.90;99.90
30764;DHT22;17497;51.476;7.770;2023-06-22T14:23:50;24.10;99.90
30764;DHT22;17497;51.476;7.770;2023-06-22T14:26:17;24.60;99.90
30764;DHT22;17497;51.476;7.770;2023-06-22T14:28:47;25.30;99.90
30764;DHT22;17497;51.476;7.770;2023-06-22T14:31:17;25.80;99.90
30764;DHT22;17497;51.476;7.770;2023-06-22T14:33:46;26.00;99.90
30764;DHT22;17497;51.476;7.770;2023-06-22T14:36:14;26.00;99.90
30764;DHT22;17497;51.476;7.770;2023-06-22T14:38:42;26.40;99.90
30764;DHT22;17497;51.476;7.770;2023-06-22T14:41:09;26.80;99.90
30764;DHT22;17497;51.476;7.770;2023-06-22T14:43:47;26.60;99.90
30764;DHT22;17497;51.476;7.770;2023-06-22T14:46:15;26.10;99.90
30764;DHT22;17497;51.476;7.770;2023-06-22T14:48:43;25.80;99.90
30764;DHT22;17497;51.476;7.770;2023-06-22T14:51:10;25.30;99.90
30764;DHT22;17497;51.476;7.770;2023-06-22T14:53:43;25.00;99.90
30764;DHT22;17497;51.476;7.770;2023-06-22T14:56:10;24.60;99.90
30764;DHT22;17497;51.476;7.770;2023-06-22T14:58:40;24.50;99.90
30764;DHT22;17497;51.476;7.770;2023-06-22T15:01:07;24.50;99.90
30764;DHT22;17497;51.476;7.770;2023-06-22T15:03:35;24.60;99.90
30764;DHT22;17497;51.476;7.770;2023-06-22T15:06:04;24.90;99.90
30764;DHT22;17497;51.476;7.770;2023-06-22T15:08:31;25.00;99.90
30764;DHT22;17497;51.476;7.770;2023-06-22T15:11:01;24.80;99.90
30764;DHT22;17497;51.476;7.770;2023-06-22T15:13:30;24.60;99.90
30764;DHT22;17497;51.476;7.770;2023-06-22T15:16:01;24.30;99.90
30764;DHT22;17497;51.476;7.770;2023-06-22T15:18:30;24.00;99.90
30764;DHT22;17497;51.476;7.770;2023-06-22T15:20:57;23.70;99.90
30764;DHT22;17497;51.476;7.770;2023-06-22T15:23:29;23.50;99.90
30764;DHT22;17497;51.476;7.770;2023-06-22T15:26:02;23.30;99.90
30764;DHT22;17497;51.476;7.770;2023-06-22T15:28:29;23.20;99.90
30764;DHT22;17497;51.476;7.770;2023-06-22T15:30:56;23.00;99.90
30764;DHT22;17497;51.476;7.770;2023-06-22T15:33:24;22.90;99.90
30764;DHT22;17497;51.476;7.770;2023-06-22T15:36:18;22.80;99.90
30764;DHT22;17497;51.476;7.770;2023-06-22T15:38:58;22.60;99.90
30764;DHT22;17497;51.476;7.770;2023-06-22T15:41:26;22.50;99.90
30764;DHT22;17497;51.476;7.770;2023-06-22T15:43:54;22.30;99.90
30764;DHT22;17497;51.476;7.770;2023-06-22T15:46:22;22.20;99.90
30764;DHT22;17497;51.476;7.770;2023-06-22T15:48:50;22.10;99.90
30764;DHT22;17497;51.476;7.770;2023-06-22T15:51:20;22.00;99.90
30764;DHT22;17497;51.476;7.770;2023-06-22T15:53:47;22.00;99.90
30764;DHT22;17497;51.476;7.770;2023-06-22T15:56:14;22.00;99.90
30764;DHT22;17497;51.476;7.770;2023-06-22T15:58:40;21.90;99.90
30764;DHT22;17497;51.476;7.770;2023-06-22T16:01:07;21.90;99.90